Time;durP1;ratioP1;P1;durP2;ratioP2;P2;SDS_P1;SDS_P2;PMS_P1;PMS_P2;Temp;Humidity;BMP_temperature;BMP_pressure;BME280_temperature;BME280_humidity;BME280_pressure;Samples;Min_cycle;Max_cycle;Signal;HPM_P1;HPM_P2
2024/03/31 00:02:23;;;;;;;48.53;15.93;;;15.50;98.50;;;;;;5050976;28;20526;-58
2024/03/31 00:04:49;;;;;;;56.87;19.00;;;15.50;98.60;;;;;;5051465;28;20210;-58
2024/03/31 00:07:14;;;;;;;45.47;18.87;;;15.50;98.70;;;;;;5051125;28;20222;-56
2024/03/31 00:09:40;;;;;;;70.80;17.70;;;15.50;98.80;;;;;;5053236;28;20421;-58
2024/03/31 00:12:06;;;;;;;59.73;18.77;;;15.50;98.70;;;;;;5055089;28;20186;-58
2024/03/31 00:14:32;;;;;;;69.47;21.07;;;15.50;98.90;;;;;;5055366;28;20424;-58
2024/03/31 00:16:58;;;;;;;64.60;22.60;;;15.50;98.80;;;;;;5055024;28;20519;-57
2024/03/31 00:19:24;;;;;;;62.70;19.27;;;15.50;98.90;;;;;;5054982;28;20623;-59
2024/03/31 00:21:49;;;;;;;41.60;15.00;;;15.50;98.90;;;;;;5055078;28;20568;-58
2024/03/31 00:24:15;;;;;;;80.17;19.50;;;15.50;98.80;;;;;;5054864;28;20188;-59
2024/03/31 00:26:41;;;;;;;57.10;16.90;;;15.50;99.00;;;;;;5054642;28;20258;-58
2024/03/31 00:29:07;;;;;;;64.73;17.90;;;15.40;99.00;;;;;;5054415;28;20202;-57
2024/03/31 00:31:32;;;;;;;48.67;19.10;;;15.40;99.00;;;;;;5054925;28;20183;-59
2024/03/31 00:33:58;;;;;;;63.07;17.87;;;15.40;99.10;;;;;;5054865;28;20552;-59
2024/03/31 00:36:23;;;;;;;57.33;17.97;;;15.40;99.10;;;;;;5046511;28;20188;-59
2024/03/31 00:38:49;;;;;;;74.73;21.13;;;15.40;99.20;;;;;;5054192;28;20203;-56
2024/03/31 00:41:14;;;;;;;46.53;17.33;;;15.30;99.20;;;;;;5053975;28;20192;-58
2024/03/31 00:43:40;;;;;;;60.13;17.60;;;15.30;99.30;;;;;;5054179;28;20543;-57
2024/03/31 00:46:07;;;;;;;49.07;16.40;;;15.30;99.50;;;;;;5054427;28;20200;-57
2024/03/31 00:48:32;;;;;;;46.97;15.67;;;15.20;99.40;;;;;;5054542;28;20250;-58
2024/03/31 00:50:58;;;;;;;61.60;19.00;;;15.20;99.80;;;;;;5054599;28;20838;-59
2024/03/31 00:53:24;;;;;;;62.37;18.23;;;15.20;99.80;;;;;;5054106;28;20177;-58
2024/03/31 00:55:50;;;;;;;56.60;17.27;;;15.20;99.80;;;;;;5054284;28;20653;-59
2024/03/31 00:58:15;;;;;;;43.57;16.30;;;15.10;99.90;;;;;;5053752;28;20451;-58
2024/03/31 01:00:41;;;;;;;63.50;18.37;;;15.10;99.90;;;;;;5054560;28;20184;-57
2024/03/31 01:03:07;;;;;;;50.07;17.90;;;15.10;99.90;;;;;;5054486;28;20267;-60
2024/03/31 01:05:34;;;;;;;61.40;18.00;;;15.10;99.90;;;;;;5055303;28;20191;-60
2024/03/31 01:08:01;;;;;;;60.87;17.67;;;15.10;99.90;;;;;;5054870;28;20498;-58
2024/03/31 01:10:27;;;;;;;63.97;18.70;;;15.00;99.90;;;;;;5046555;28;20955;-56
2024/03/31 01:12:53;;;;;;;58.83;18.60;;;15.00;99.90;;;;;;5054314;28;20431;-54
2024/03/31 01:15:19;;;;;;;62.00;16.07;;;15.00;99.90;;;;;;5053993;28;20716;-53
2024/03/31 01:17:45;;;;;;;53.70;16.43;;;14.90;99.90;;;;;;5054089;28;20441;-52
2024/03/31 01:20:11;;;;;;;53.87;18.90;;;14.90;99.90;;;;;;5054052;28;20522;-59
2024/03/31 01:22:38;;;;;;;56.53;16.77;;;14.90;99.90;;;;;;5054172;28;20187;-56
2024/03/31 01:25:05;;;;;;;59.63;18.43;;;14.90;99.90;;;;;;5053737;28;20184;-54
2024/03/31 01:27:30;;;;;;;55.57;17.10;;;14.80;99.90;;;;;;5053654;28;20536;-56
2024/03/31 01:29:56;;;;;;;59.77;20.67;;;14.80;99.90;;;;;;5053953;28;20429;-57
2024/03/31 01:32:21;;;;;;;60.97;20.27;;;14.80;99.90;;;;;;5053674;28;20196;-59
2024/03/31 01:34:47;;;;;;;62.33;18.23;;;14.70;99.90;;;;;;5050125;28;20664;-54
2024/03/31 01:37:13;;;;;;;47.80;16.50;;;14.70;99.90;;;;;;5053323;28;20295;-54
2024/03/31 01:39:38;;;;;;;63.63;19.43;;;14.70;99.90;;;;;;5053745;28;20180;-55
2024/03/31 01:42:04;;;;;;;53.20;18.43;;;14.60;99.90;;;;;;5053488;28;20551;-55
2024/03/31 01:44:30;;;;;;;57.83;18.80;;;14.60;99.90;;;;;;5053049;28;20191;-54
2024/03/31 01:46:55;;;;;;;57.10;18.13;;;14.50;99.90;;;;;;5053456;28;20867;-56
2024/03/31 01:49:21;;;;;;;51.57;18.00;;;14.50;99.90;;;;;;5053181;28;20186;-50
2024/03/31 01:51:46;;;;;;;59.33;17.77;;;14.40;99.90;;;;;;5053280;28;20227;-57
2024/03/31 01:54:12;;;;;;;60.47;20.93;;;14.40;99.90;;;;;;5053079;28;20180;-53
2024/03/31 01:56:37;;;;;;;52.00;19.23;;;14.30;99.90;;;;;;5052741;28;20233;-53
2024/03/31 01:59:03;;;;;;;57.13;19.60;;;14.30;99.90;;;;;;5052929;28;20744;-58
2024/03/31 02:01:29;;;;;;;56.47;19.80;;;14.30;99.90;;;;;;5053262;28;20183;-55
2024/03/31 02:03:55;;;;;;;54.73;19.73;;;14.20;99.90;;;;;;5052430;28;20428;-56
2024/03/31 02:06:20;;;;;;;51.07;19.23;;;14.20;99.90;;;;;;5052795;28;20213;-55
2024/03/31 02:08:46;;;;;;;46.10;18.57;;;14.10;99.90;;;;;;5053006;28;20211;-54
2024/03/31 02:11:11;;;;;;;62.23;18.80;;;14.10;99.90;;;;;;5053039;28;20201;-50
2024/03/31 02:13:37;;;;;;;53.63;20.37;;;14.10;99.90;;;;;;5052626;28;20191;-51
2024/03/31 02:16:03;;;;;;;52.97;19.00;;;14.00;99.90;;;;;;5052886;28;20700;-55
2024/03/31 02:18:28;;;;;;;49.43;16.87;;;14.00;99.90;;;;;;5034861;28;20561;-51
2024/03/31 02:20:56;;;;;;;63.10;19.03;;;14.00;99.90;;;;;;5052896;28;20183;-55
2024/03/31 02:23:22;;;;;;;54.37;17.33;;;14.00;99.90;;;;;;5052382;28;20180;-55
2024/03/31 02:25:47;;;;;;;37.10;15.80;;;13.90;99.90;;;;;;5052743;28;20433;-57
2024/03/31 02:28:13;;;;;;;50.77;21.00;;;13.90;99.90;;;;;;5052365;28;20204;-57
2024/03/31 02:30:41;;;;;;;64.63;21.83;;;13.90;99.90;;;;;;5052564;28;20185;-56
2024/03/31 02:33:06;;;;;;;54.13;18.70;;;13.80;99.90;;;;;;5052407;28;20184;-56
2024/03/31 02:35:32;;;;;;;49.43;18.40;;;13.80;99.90;;;;;;5052876;28;20480;-53
2024/03/31 02:37:57;;;;;;;52.67;19.50;;;13.80;99.90;;;;;;5052315;28;20281;-58
2024/03/31 02:40:23;;;;;;;57.00;19.93;;;13.80;99.90;;;;;;5052079;28;20186;-51
2024/03/31 02:42:49;;;;;;;50.93;19.80;;;13.70;99.90;;;;;;5052342;28;20184;-54
2024/03/31 02:45:14;;;;;;;50.87;17.57;;;13.70;99.90;;;;;;5052276;28;20183;-51
2024/03/31 02:47:40;;;;;;;59.23;19.80;;;13.70;99.90;;;;;;5052441;28;20261;-54
2024/03/31 02:50:06;;;;;;;50.83;17.40;;;13.60;99.90;;;;;;5052073;28;20192;-55
2024/03/31 02:52:31;;;;;;;41.53;17.60;;;13.60;99.90;;;;;;5043951;28;20184;-58
2024/03/31 02:54:58;;;;;;;40.97;15.03;;;13.60;99.90;;;;;;5052382;28;20232;-55
2024/03/31 02:57:23;;;;;;;61.57;20.27;;;13.60;99.90;;;;;;5051571;28;20264;-59
2024/03/31 02:59:49;;;;;;;44.93;19.53;;;13.60;99.90;;;;;;5052250;28;20426;-55
2024/03/31 03:02:14;;;;;;;53.37;19.20;;;13.50;99.90;;;;;;5051885;28;20196;-54
2024/03/31 03:04:40;;;;;;;71.47;17.90;;;13.50;99.90;;;;;;5052194;28;20191;-52
2024/03/31 03:07:06;;;;;;;56.03;17.80;;;13.50;99.90;;;;;;5051688;28;20211;-58
2024/03/31 03:09:32;;;;;;;60.60;20.40;;;13.40;99.90;;;;;;5052313;28;20613;-58
2024/03/31 03:11:57;;;;;;;63.70;19.10;;;13.40;99.90;;;;;;5051855;28;20484;-54
2024/03/31 03:14:23;;;;;;;58.17;19.40;;;13.40;99.90;;;;;;5051770;28;20285;-54
2024/03/31 03:16:49;;;;;;;46.47;16.70;;;13.40;99.90;;;;;;5051567;28;20237;-54
2024/03/31 03:19:14;;;;;;;68.80;19.90;;;13.40;99.90;;;;;;5051733;28;20210;-54
2024/03/31 03:21:40;;;;;;;50.43;17.27;;;13.30;99.90;;;;;;5052104;28;20422;-56
2024/03/31 03:24:06;;;;;;;51.23;17.17;;;13.30;99.90;;;;;;5052070;28;20707;-53
2024/03/31 03:26:31;;;;;;;47.63;18.43;;;13.30;99.90;;;;;;5051183;28;20205;-55
2024/03/31 03:28:58;;;;;;;41.47;17.70;;;13.30;99.90;;;;;;5051729;28;20454;-57
2024/03/31 03:31:24;;;;;;;53.20;17.90;;;13.30;99.90;;;;;;5051722;28;20641;-56
2024/03/31 03:33:49;;;;;;;42.07;17.83;;;13.30;99.90;;;;;;5051681;28;20469;-52
2024/03/31 03:36:15;;;;;;;57.47;19.10;;;13.20;99.90;;;;;;5052104;28;20216;-52
2024/03/31 03:38:40;;;;;;;44.47;16.67;;;13.20;99.90;;;;;;5051963;28;20206;-58
2024/03/31 03:41:06;;;;;;;48.77;16.87;;;13.20;99.90;;;;;;5051664;28;20182;-56
2024/03/31 03:43:34;;;;;;;45.07;19.97;;;13.20;99.90;;;;;;5050793;28;20550;-57
2024/03/31 03:46:00;;;;;;;42.87;16.67;;;13.10;99.90;;;;;;5051619;28;20178;-54
2024/03/31 03:48:26;;;;;;;63.30;20.20;;;13.10;99.90;;;;;;5051411;28;20475;-54
2024/03/31 03:50:52;;;;;;;54.57;17.30;;;13.10;99.90;;;;;;5051674;28;20444;-52
2024/03/31 03:53:18;;;;;;;47.87;17.90;;;13.10;99.90;;;;;;5051372;28;20428;-51
2024/03/31 03:55:44;;;;;;;45.13;17.80;;;13.10;99.90;;;;;;5051565;28;20199;-55
2024/03/31 03:58:10;;;;;;;40.63;16.67;;;13.00;99.90;;;;;;5051495;28;20202;-55
2024/03/31 04:00:39;;;;;;;55.50;19.40;;;13.00;99.90;;;;;;5033774;28;20418;-55
2024/03/31 04:03:05;;;;;;;47.87;18.60;;;13.00;99.90;;;;;;5051484;28;20183;-55
2024/03/31 04:05:31;;;;;;;73.40;18.63;;;13.00;99.90;;;;;;5051192;28;20419;-58
2024/03/31 04:07:56;;;;;;;50.10;16.70;;;13.00;99.90;;;;;;5051086;28;20237;-54
2024/03/31 04:10:22;;;;;;;57.43;19.30;;;12.90;99.90;;;;;;5051284;28;20183;-56
2024/03/31 04:12:48;;;;;;;55.17;19.23;;;12.90;99.90;;;;;;5033236;28;20539;-55
2024/03/31 04:15:14;;;;;;;62.50;20.63;;;12.90;99.90;;;;;;5051231;28;20254;-54
2024/03/31 04:17:39;;;;;;;49.63;16.33;;;12.90;99.90;;;;;;5051270;28;20524;-52
2024/03/31 04:20:06;;;;;;;49.47;16.43;;;12.80;99.90;;;;;;5051408;28;20267;-55
2024/03/31 04:22:32;;;;;;;56.87;17.90;;;12.80;99.90;;;;;;5051475;28;20270;-59
2024/03/31 04:24:57;;;;;;;47.23;17.40;;;12.80;99.90;;;;;;5051226;28;20465;-52
2024/03/31 04:27:23;;;;;;;50.20;17.30;;;12.80;99.90;;;;;;5050873;28;20893;-50
2024/03/31 04:29:48;;;;;;;51.50;17.73;;;12.70;99.90;;;;;;5051324;28;20301;-52
2024/03/31 04:32:15;;;;;;;45.20;16.57;;;12.70;99.90;;;;;;5050969;28;20305;-54
2024/03/31 04:34:40;;;;;;;46.43;18.63;;;12.70;99.90;;;;;;5051269;28;20186;-53
2024/03/31 04:37:06;;;;;;;39.70;19.33;;;12.60;99.90;;;;;;5050898;28;20413;-58
2024/03/31 04:39:31;;;;;;;59.77;17.83;;;12.60;99.90;;;;;;5051026;28;20273;-57
2024/03/31 04:41:57;;;;;;;44.63;18.10;;;12.60;99.90;;;;;;5051192;28;20309;-51
2024/03/31 04:44:23;;;;;;;53.33;21.13;;;12.50;99.90;;;;;;5051116;28;20649;-51
2024/03/31 04:46:50;;;;;;;50.63;17.03;;;12.50;99.90;;;;;;5051042;28;20677;-51
2024/03/31 04:49:16;;;;;;;38.50;15.00;;;12.50;99.90;;;;;;5051066;28;20465;-55
2024/03/31 04:51:42;;;;;;;71.47;18.70;;;12.50;99.90;;;;;;5051428;28;20421;-58
2024/03/31 04:54:07;;;;;;;62.17;21.17;;;12.50;99.90;;;;;;5051612;28;20440;-52
2024/03/31 04:56:33;;;;;;;49.53;17.43;;;12.50;99.90;;;;;;5053955;28;20191;-54
2024/03/31 04:58:58;;;;;;;56.60;19.00;;;12.50;99.90;;;;;;5055040;28;20676;-54
2024/03/31 05:01:24;;;;;;;41.57;18.80;;;12.50;99.90;;;;;;5054924;28;20656;-57
2024/03/31 05:03:50;;;;;;;58.33;17.33;;;12.50;99.90;;;;;;5054700;28;20179;-54
2024/03/31 05:06:15;;;;;;;44.73;17.10;;;12.50;99.90;;;;;;5054019;28;20213;-55
2024/03/31 05:08:42;;;;;;;52.63;16.40;;;12.50;99.90;;;;;;5054126;28;20704;-61
2024/03/31 05:11:07;;;;;;;44.50;17.77;;;12.40;99.90;;;;;;5054600;28;20507;-53
2024/03/31 05:13:33;;;;;;;47.93;17.10;;;12.40;99.90;;;;;;5054216;28;20261;-57
2024/03/31 05:16:00;;;;;;;46.30;19.07;;;12.40;99.90;;;;;;5054127;28;20289;-59
2024/03/31 05:18:26;;;;;;;52.40;17.13;;;12.40;99.90;;;;;;5053917;28;20619;-55
2024/03/31 05:21:02;;;;;;;45.30;17.53;;;12.40;99.90;;;;;;5054107;28;20467;-52
2024/03/31 05:23:29;;;;;;;69.83;18.87;;;12.40;99.90;;;;;;5054169;28;20702;-59
2024/03/31 05:25:59;;;;;;;56.13;17.83;;;12.40;99.90;;;;;;5054069;28;20475;-54
2024/03/31 05:28:25;;;;;;;56.80;18.90;;;12.40;99.90;;;;;;5053882;28;20456;-57
2024/03/31 05:30:51;;;;;;;53.57;17.87;;;12.40;99.90;;;;;;5053901;28;20453;-54
2024/03/31 05:33:16;;;;;;;44.80;18.30;;;12.40;99.90;;;;;;5053421;28;20449;-55
2024/03/31 05:35:43;;;;;;;54.90;19.63;;;12.50;99.90;;;;;;5053818;28;20241;-52
2024/03/31 05:38:10;;;;;;;41.40;17.03;;;12.60;99.90;;;;;;5050469;28;20207;-57
2024/03/31 05:40:39;;;;;;;49.30;16.17;;;12.60;99.90;;;;;;5053114;28;20430;-53
2024/03/31 05:43:05;;;;;;;48.77;17.40;;;12.60;99.90;;;;;;5053766;28;20429;-57
2024/03/31 05:45:32;;;;;;;46.37;16.67;;;12.60;99.90;;;;;;5053514;28;20433;-57
2024/03/31 05:47:57;;;;;;;49.23;19.17;;;12.60;99.90;;;;;;5053320;28;20469;-52
2024/03/31 05:50:23;;;;;;;42.43;16.30;;;12.70;99.90;;;;;;5053212;28;20433;-56
2024/03/31 05:52:48;;;;;;;58.77;17.07;;;12.70;99.90;;;;;;5053435;28;20641;-55
2024/03/31 05:55:14;;;;;;;43.83;15.70;;;12.70;99.90;;;;;;5053636;28;20206;-57
2024/03/31 05:57:40;;;;;;;45.33;16.93;;;12.70;99.90;;;;;;5053019;28;20207;-57
2024/03/31 06:00:06;;;;;;;61.20;18.63;;;12.80;99.90;;;;;;5053649;28;20212;-53
2024/03/31 06:02:32;;;;;;;59.67;17.33;;;12.80;99.90;;;;;;5053072;28;20187;-54
2024/03/31 06:04:58;;;;;;;46.97;15.37;;;12.80;99.90;;;;;;5053367;28;20440;-54
2024/03/31 06:07:25;;;;;;;58.83;17.83;;;12.80;99.90;;;;;;5051798;28;20207;-51
2024/03/31 06:09:50;;;;;;;46.07;17.90;;;12.90;99.90;;;;;;5053061;28;20425;-54
2024/03/31 06:12:16;;;;;;;44.90;18.00;;;13.00;99.90;;;;;;5053136;28;20421;-55
2024/03/31 06:14:41;;;;;;;45.93;16.33;;;13.00;99.90;;;;;;5053337;28;20183;-58
2024/03/31 06:17:07;;;;;;;55.70;17.50;;;13.00;99.90;;;;;;5052820;28;20229;-56
2024/03/31 06:19:33;;;;;;;55.00;17.23;;;13.00;99.90;;;;;;5052803;28;20190;-52
2024/03/31 06:21:58;;;;;;;56.57;16.93;;;13.10;99.90;;;;;;5052638;28;20528;-52
2024/03/31 06:24:24;;;;;;;60.73;17.83;;;13.10;99.90;;;;;;5052601;28;20195;-52
2024/03/31 06:26:49;;;;;;;55.57;20.80;;;13.20;99.90;;;;;;5052627;28;20309;-58
2024/03/31 06:29:15;;;;;;;74.00;21.13;;;13.30;99.90;;;;;;5052631;28;20647;-50
2024/03/31 06:31:41;;;;;;;48.83;16.27;;;13.40;99.90;;;;;;5052282;28;20228;-54
2024/03/31 06:34:06;;;;;;;57.47;19.33;;;13.50;99.90;;;;;;5052661;28;20183;-55
2024/03/31 06:36:32;;;;;;;52.57;18.10;;;13.40;99.90;;;;;;5052236;28;20191;-56
2024/03/31 06:38:57;;;;;;;63.67;19.20;;;13.40;99.90;;;;;;5052501;28;20211;-50
2024/03/31 06:41:23;;;;;;;60.43;19.50;;;13.60;99.90;;;;;;5052361;28;20183;-52
2024/03/31 06:43:49;;;;;;;41.43;17.87;;;13.70;99.90;;;;;;5052584;28;20187;-56
2024/03/31 06:46:14;;;;;;;56.17;21.43;;;13.80;99.90;;;;;;5052349;28;20626;-56
2024/03/31 06:48:40;;;;;;;57.90;19.30;;;13.90;99.90;;;;;;5052030;28;20744;-58
2024/03/31 06:51:05;;;;;;;46.20;19.70;;;14.00;99.90;;;;;;5052126;28;20183;-54
2024/03/31 06:53:31;;;;;;;65.37;21.40;;;14.20;99.90;;;;;;5052081;28;20187;-51
2024/03/31 06:55:56;;;;;;;52.33;17.33;;;14.00;99.90;;;;;;5052337;28;20643;-54
2024/03/31 06:58:22;;;;;;;48.83;19.60;;;14.00;99.90;;;;;;5051878;28;20214;-60
2024/03/31 07:00:48;;;;;;;61.70;19.60;;;14.00;99.90;;;;;;5052042;28;20185;-54
2024/03/31 07:03:13;;;;;;;56.97;17.80;;;14.20;99.90;;;;;;5051863;28;20687;-56
2024/03/31 07:05:39;;;;;;;53.40;18.17;;;14.20;99.90;;;;;;5051802;28;20596;-53
2024/03/31 07:08:05;;;;;;;67.23;18.70;;;14.20;99.90;;;;;;5051860;28;20216;-56
2024/03/31 07:10:30;;;;;;;56.27;20.10;;;14.10;99.90;;;;;;5051516;28;20242;-58
2024/03/31 07:12:56;;;;;;;52.50;18.20;;;14.10;99.90;;;;;;5051806;28;20184;-53
2024/03/31 07:15:21;;;;;;;58.67;18.13;;;14.30;99.90;;;;;;5051632;28;20719;-58
2024/03/31 07:17:48;;;;;;;66.53;19.97;;;14.30;99.90;;;;;;5051326;28;20204;-51
2024/03/31 07:20:14;;;;;;;59.47;19.00;;;14.30;99.90;;;;;;5051698;28;20196;-54
2024/03/31 07:22:40;;;;;;;40.80;18.50;;;14.40;99.90;;;;;;5051497;28;20427;-53
2024/03/31 07:25:06;;;;;;;46.17;17.93;;;14.60;99.90;;;;;;5052222;28;20437;-56
2024/03/31 07:27:31;;;;;;;58.27;18.43;;;14.80;99.90;;;;;;5051829;28;20517;-54
2024/03/31 07:29:57;;;;;;;72.87;18.83;;;14.60;99.90;;;;;;5052901;28;20180;-57
2024/03/31 07:32:22;;;;;;;47.47;18.90;;;14.70;99.90;;;;;;5036728;28;20224;-61
2024/03/31 07:34:48;;;;;;;56.30;18.97;;;14.80;99.90;;;;;;5052723;28;20582;-50
2024/03/31 07:37:13;;;;;;;56.80;19.00;;;15.00;99.90;;;;;;5051228;28;20215;-53
2024/03/31 07:39:39;;;;;;;53.57;18.67;;;15.00;99.90;;;;;;5051259;28;20195;-55
2024/03/31 07:42:05;;;;;;;60.23;19.30;;;15.00;99.90;;;;;;5051562;28;20189;-55
2024/03/31 07:44:30;;;;;;;60.83;18.00;;;14.90;99.90;;;;;;5051323;28;20948;-55
2024/03/31 07:46:56;;;;;;;52.33;21.20;;;14.70;99.90;;;;;;5051026;28;20219;-57
2024/03/31 07:49:22;;;;;;;72.83;18.80;;;14.70;99.90;;;;;;5051348;28;20180;-53
2024/03/31 07:51:47;;;;;;;54.73;18.37;;;14.50;99.90;;;;;;5051459;28;20178;-55
2024/03/31 07:54:13;;;;;;;55.73;19.17;;;14.80;99.90;;;;;;5051558;28;20199;-60
2024/03/31 07:56:38;;;;;;;57.47;18.27;;;15.10;99.90;;;;;;5051359;28;20195;-56
2024/03/31 07:59:04;;;;;;;67.47;21.27;;;15.00;99.90;;;;;;5051355;28;20291;-55
2024/03/31 08:01:29;;;;;;;59.43;19.13;;;15.30;99.90;;;;;;5051163;28;20303;-55
2024/03/31 08:03:55;;;;;;;61.67;20.77;;;15.60;99.90;;;;;;5051537;28;20664;-55
2024/03/31 08:06:21;;;;;;;53.63;17.17;;;15.30;99.90;;;;;;5051054;28;20266;-54
2024/03/31 08:08:47;;;;;;;49.23;17.83;;;15.10;99.90;;;;;;5050940;28;20225;-53
2024/03/31 08:11:12;;;;;;;67.03;20.40;;;15.20;99.90;;;;;;5051272;28;20463;-56
2024/03/31 08:13:38;;;;;;;55.60;17.90;;;15.50;99.90;;;;;;5051026;28;20189;-56
2024/03/31 08:16:04;;;;;;;40.80;17.60;;;15.20;99.90;;;;;;5051111;28;20186;-56
2024/03/31 08:18:29;;;;;;;61.20;20.77;;;15.30;99.90;;;;;;5051032;28;20735;-60
2024/03/31 08:20:55;;;;;;;52.27;20.60;;;15.60;99.90;;;;;;5051133;28;20837;-59
2024/03/31 08:23:21;;;;;;;62.07;19.00;;;15.90;99.90;;;;;;5050942;28;20175;-56
2024/03/31 08:25:52;;;;;;;50.93;21.90;;;16.50;99.90;;;;;;5050903;28;20265;-55
2024/03/31 08:28:18;;;;;;;51.87;17.80;;;16.50;99.90;;;;;;5050889;28;20606;-54
2024/03/31 08:30:46;;;;;;;41.77;18.13;;;16.20;99.90;;;;;;5034734;28;20445;-59
2024/03/31 08:33:11;;;;;;;54.20;19.07;;;16.00;99.90;;;;;;5054682;28;20186;-52
2024/03/31 08:35:38;;;;;;;51.87;19.37;;;16.10;99.90;;;;;;5054454;28;20436;-55
2024/03/31 08:38:04;;;;;;;62.73;22.37;;;16.50;99.90;;;;;;5054525;28;20713;-54
2024/03/31 08:40:33;;;;;;;69.07;21.10;;;16.90;99.90;;;;;;5054474;28;20435;-53
2024/03/31 08:43:05;;;;;;;53.10;17.67;;;16.60;99.90;;;;;;5054489;28;20480;-55
2024/03/31 08:45:31;;;;;;;53.03;19.40;;;17.40;99.90;;;;;;5054488;28;20439;-54
2024/03/31 08:47:59;;;;;;;66.43;20.60;;;17.70;99.90;;;;;;5054041;28;20474;-56
2024/03/31 08:50:25;;;;;;;53.53;19.90;;;18.30;99.90;;;;;;5054376;28;20793;-63
2024/03/31 08:52:51;;;;;;;64.60;19.73;;;18.20;99.90;;;;;;5054124;28;20424;-57
2024/03/31 08:55:18;;;;;;;58.90;21.90;;;18.70;99.80;;;;;;5054293;28;20431;-60
2024/03/31 08:57:43;;;;;;;56.23;19.60;;;19.10;99.10;;;;;;5053846;28;20457;-62
2024/03/31 09:00:09;;;;;;;53.63;18.57;;;19.10;99.90;;;;;;5054395;28;20435;-57
2024/03/31 09:02:38;;;;;;;74.93;22.63;;;19.60;97.70;;;;;;5053916;28;20194;-56
2024/03/31 09:05:04;;;;;;;52.20;23.07;;;20.00;95.50;;;;;;5051566;28;20433;-57
2024/03/31 09:07:31;;;;;;;52.47;18.50;;;20.10;93.00;;;;;;5053624;28;20465;-55
2024/03/31 09:09:57;;;;;;;49.83;16.53;;;20.30;93.00;;;;;;5054146;28;20523;-54
2024/03/31 09:12:23;;;;;;;66.23;20.40;;;20.50;92.90;;;;;;5053717;28;20865;-57
2024/03/31 09:14:49;;;;;;;59.00;17.70;;;19.30;95.30;;;;;;5053786;28;20417;-57
2024/03/31 09:17:14;;;;;;;57.70;20.37;;;18.90;96.40;;;;;;5053716;28;20210;-57
2024/03/31 09:19:40;;;;;;;48.90;17.70;;;18.80;97.90;;;;;;5053901;28;20198;-59
2024/03/31 09:22:06;;;;;;;63.13;18.40;;;18.90;99.90;;;;;;5053792;28;20190;-56
2024/03/31 09:24:33;;;;;;;78.60;20.80;;;19.20;98.40;;;;;;5053714;28;20241;-54
2024/03/31 09:26:59;;;;;;;72.47;20.10;;;18.50;98.40;;;;;;5053355;28;20681;-57
2024/03/31 09:29:26;;;;;;;56.30;21.40;;;18.50;98.60;;;;;;5053552;28;20431;-58
2024/03/31 09:32:14;;;;;;;71.10;18.33;;;18.60;98.80;;;;;;5053293;28;20450;-54
2024/03/31 09:34:48;;;;;;;52.10;19.20;;;18.90;99.90;;;;;;5053401;28;20431;-54
2024/03/31 09:37:14;;;;;;;53.73;20.83;;;19.00;98.80;;;;;;5053128;28;20482;-57
2024/03/31 09:39:44;;;;;;;54.30;21.83;;;18.90;99.90;;;;;;5053247;28;20519;-54
2024/03/31 09:42:10;;;;;;;49.37;18.13;;;18.60;99.90;;;;;;5052260;28;21016;-59
2024/03/31 09:44:37;;;;;;;63.97;19.40;;;19.50;99.90;;;;;;5053387;28;20431;-56
2024/03/31 09:47:28;;;;;;;54.67;21.80;;;19.20;99.80;;;;;;5053018;28;20549;-58
2024/03/31 09:50:08;;;;;;;58.67;22.03;;;20.10;99.00;;;;;;5052981;28;20517;-54
2024/03/31 09:52:40;;;;;;;64.30;20.63;;;20.00;98.10;;;;;;5053154;28;20525;-58
2024/03/31 09:55:10;;;;;;;64.63;22.03;;;19.60;97.90;;;;;;5053137;28;20509;-58
2024/03/31 09:57:44;;;;;;;55.63;19.00;;;19.50;98.10;;;;;;5052691;28;20453;-57
2024/03/31 10:00:14;;;;;;;49.63;18.30;;;19.30;99.60;;;;;;5053334;28;20440;-58
2024/03/31 10:02:49;;;;;;;54.93;19.97;;;18.70;99.80;;;;;;5052806;28;20429;-57
2024/03/31 10:05:24;;;;;;;60.63;20.40;;;17.80;99.90;;;;;;5053082;28;20432;-56
2024/03/31 10:07:52;;;;;;;60.20;18.93;;;18.20;99.90;;;;;;5052735;28;20546;-56
2024/03/31 10:10:19;;;;;;;58.37;21.73;;;18.80;99.90;;;;;;5052776;28;20425;-59
2024/03/31 10:12:47;;;;;;;51.97;19.30;;;18.50;99.90;;;;;;5052516;28;20470;-54
2024/03/31 10:15:15;;;;;;;46.53;18.23;;;18.80;99.90;;;;;;5053054;28;20759;-59
2024/03/31 10:17:41;;;;;;;62.17;19.17;;;19.40;99.90;;;;;;5052225;28;20441;-59
2024/03/31 10:20:09;;;;;;;46.47;19.10;;;19.60;99.30;;;;;;5053009;28;20442;-55
2024/03/31 10:22:36;;;;;;;56.73;17.73;;;19.70;98.10;;;;;;5052447;28;20474;-62
2024/03/31 10:25:02;;;;;;;64.03;20.27;;;20.10;97.50;;;;;;5052587;28;20424;-56
2024/03/31 10:27:29;;;;;;;44.00;18.80;;;20.20;96.40;;;;;;5052292;28;20467;-64
2024/03/31 10:29:57;;;;;;;66.67;20.90;;;20.00;97.20;;;;;;5052608;28;20522;-61
2024/03/31 10:32:22;;;;;;;58.80;18.70;;;19.70;97.70;;;;;;5052535;28;20438;-55
2024/03/31 10:34:49;;;;;;;58.43;20.87;;;19.50;98.30;;;;;;5052364;28;20423;-58
2024/03/31 10:37:16;;;;;;;57.57;20.40;;;20.00;98.20;;;;;;5052300;28;20260;-56
2024/03/31 10:39:44;;;;;;;55.63;20.00;;;20.20;97.10;;;;;;5052185;28;21075;-59
2024/03/31 10:42:10;;;;;;;79.90;19.93;;;19.70;98.70;;;;;;5052505;28;20429;-54
2024/03/31 10:44:37;;;;;;;57.03;17.80;;;19.10;99.90;;;;;;5052213;28;20433;-57
2024/03/31 10:47:05;;;;;;;57.50;18.70;;;18.90;99.90;;;;;;5051971;28;20827;-55
2024/03/31 10:49:40;;;;;;;52.43;19.00;;;19.10;99.90;;;;;;5052194;28;20471;-56
2024/03/31 10:52:13;;;;;;;62.60;18.77;;;19.10;99.90;;;;;;5052161;28;20428;-57
2024/03/31 10:54:40;;;;;;;53.47;17.77;;;19.00;99.90;;;;;;5051616;28;20551;-55
2024/03/31 10:57:13;;;;;;;58.87;18.47;;;18.70;99.90;;;;;;5051900;28;20825;-56
2024/03/31 10:59:40;;;;;;;44.73;17.07;;;18.80;99.90;;;;;;5051814;28;20423;-57
2024/03/31 11:02:20;;;;;;;42.83;17.87;;;19.00;99.90;;;;;;5051950;28;20785;-56
2024/03/31 11:05:03;;;;;;;43.63;15.70;;;19.30;99.90;;;;;;5051748;28;20429;-54
2024/03/31 11:07:31;;;;;;;46.37;17.13;;;18.90;99.90;;;;;;5051770;28;20467;-57
2024/03/31 11:09:57;;;;;;;37.07;14.53;;;19.30;99.90;;;;;;5051642;28;20913;-59
2024/03/31 11:12:24;;;;;;;45.70;17.67;;;19.40;99.90;;;;;;5051645;28;20432;-56
2024/03/31 11:14:51;;;;;;;47.70;17.43;;;19.20;99.90;;;;;;5051371;28;20438;-61
2024/03/31 11:17:17;;;;;;;43.50;15.03;;;18.90;99.90;;;;;;5051496;28;20451;-57
2024/03/31 11:19:43;;;;;;;48.63;14.70;;;19.20;99.90;;;;;;5051131;28;20430;-54
2024/03/31 11:22:09;;;;;;;45.27;16.67;;;19.40;99.90;;;;;;5051276;28;20461;-53
2024/03/31 11:24:37;;;;;;;46.97;16.70;;;19.90;99.90;;;;;;5051431;28;20973;-64
2024/03/31 11:27:03;;;;;;;51.60;16.17;;;19.40;99.90;;;;;;5051546;28;20205;-51
2024/03/31 11:29:30;;;;;;;42.43;16.07;;;19.40;99.90;;;;;;5051589;28;20430;-52
2024/03/31 11:31:57;;;;;;;38.60;15.03;;;19.40;99.90;;;;;;5051299;28;20834;-56
2024/03/31 11:34:23;;;;;;;47.03;14.40;;;19.70;99.90;;;;;;5048750;28;20443;-55
2024/03/31 11:36:50;;;;;;;53.60;15.57;;;19.60;99.90;;;;;;5051034;28;20427;-54
2024/03/31 11:39:16;;;;;;;45.23;15.70;;;19.80;99.90;;;;;;5051227;28;20454;-51
2024/03/31 11:41:42;;;;;;;50.70;15.47;;;19.70;99.90;;;;;;5051117;28;20801;-53
2024/03/31 11:44:08;;;;;;;42.93;16.10;;;19.80;99.90;;;;;;5033764;28;20204;-52
2024/03/31 11:46:37;;;;;;;42.27;15.53;;;19.80;99.90;;;;;;5051190;28;20469;-53
2024/03/31 11:49:03;;;;;;;43.20;14.10;;;19.80;99.90;;;;;;5043192;28;20448;-50
2024/03/31 11:51:37;;;;;;;45.17;14.63;;;19.60;99.90;;;;;;5051280;28;20450;-55
2024/03/31 11:54:04;;;;;;;37.57;14.33;;;19.70;99.90;;;;;;5051368;28;20422;-58
2024/03/31 11:56:30;;;;;;;43.77;15.00;;;19.60;99.90;;;;;;5051213;28;20423;-64
2024/03/31 11:58:55;;;;;;;49.53;15.40;;;19.50;99.90;;;;;;5050522;28;20455;-67
2024/03/31 12:01:23;;;;;;;50.00;15.53;;;19.60;99.90;;;;;;5051236;28;20543;-61
2024/03/31 12:03:55;;;;;;;53.83;16.00;;;20.00;99.90;;;;;;5050980;28;20196;-59
2024/03/31 12:06:25;;;;;;;42.13;14.40;;;20.50;99.20;;;;;;5053911;28;20458;-58
2024/03/31 12:08:51;;;;;;;45.03;15.80;;;20.40;99.20;;;;;;5054812;28;20563;-51
2024/03/31 12:11:19;;;;;;;46.30;13.90;;;20.00;99.90;;;;;;5055169;28;20477;-52
2024/03/31 12:13:50;;;;;;;43.80;14.90;;;20.20;99.90;;;;;;5054605;28;20429;-54
2024/03/31 12:16:17;;;;;;;54.17;16.93;;;20.20;99.90;;;;;;5055094;28;20939;-52
2024/03/31 12:18:43;;;;;;;37.97;14.70;;;20.00;99.90;;;;;;5054755;28;20933;-63
2024/03/31 12:21:08;;;;;;;45.40;14.50;;;20.40;99.90;;;;;;5055203;28;20516;-54
2024/03/31 12:23:35;;;;;;;33.17;12.23;;;20.70;99.50;;;;;;5055079;28;20255;-56
2024/03/31 12:26:03;;;;;;;45.80;16.80;;;20.70;99.50;;;;;;5054560;28;20176;-54